createdAt,value
2023-02-11T00:01:35.501Z,103217.64
2023-02-11T00:04:07.388Z,103213.33
2023-02-11T00:06:36.291Z,103213.08
2023-02-11T00:09:05.626Z,103207.95
2023-02-11T00:11:34.302Z,103204.82
2023-02-11T00:14:05.610Z,103202.14
2023-02-11T00:16:33.973Z,103202.10
2023-02-11T00:19:06.376Z,103197.08
2023-02-11T00:21:35.305Z,103192.25
2023-02-11T00:24:04.309Z,103192.31
2023-02-11T00:26:35.323Z,103195.50
2023-02-11T00:29:04.670Z,103194.86
2023-02-11T00:31:34.041Z,103191.06
2023-02-11T00:34:02.917Z,103193.67
2023-02-11T00:36:31.429Z,103190.89
2023-02-11T00:39:00.799Z,103192.08
2023-02-11T00:41:30.509Z,103188.67
2023-02-11T00:44:02.317Z,103189.84
2023-02-11T00:46:30.828Z,103194.16
2023-02-11T00:48:59.348Z,103190.28
2023-02-11T00:51:29.217Z,103195.39
2023-02-11T00:53:57.746Z,103191.11
2023-02-11T00:56:26.045Z,103193.20
2023-02-11T00:58:54.581Z,103189.71
2023-02-11T01:01:23.476Z,103183.08
2023-02-11T01:03:52.058Z,103176.52
2023-02-11T01:06:20.740Z,103178.77
2023-02-11T01:08:49.126Z,103173.97
2023-02-11T01:11:19.880Z,103176.13
2023-02-11T01:13:51.379Z,103168.52
2023-02-11T01:16:22.329Z,103167.55
2023-02-11T01:18:50.747Z,103164.10
2023-02-11T01:21:19.745Z,103160.17
2023-02-11T01:23:48.444Z,103159.86
2023-02-11T01:26:17.033Z,103157.50
2023-02-11T01:28:45.582Z,103155.21
2023-02-11T01:31:14.954Z,103153.33
2023-02-11T01:33:43.464Z,103149.71
2023-02-11T01:36:12.964Z,103148.59
2023-02-11T01:38:41.971Z,103149.02
2023-02-11T01:41:13.113Z,103151.10
2023-02-11T01:43:48.992Z,103142.77
2023-02-11T01:46:36.606Z,103142.13
2023-02-11T01:49:11.070Z,103147.63
2023-02-11T01:51:47.776Z,103136.60
2023-02-11T01:54:41.087Z,103136.16
2023-02-11T01:57:25.865Z,103132.60
2023-02-11T02:00:24.439Z,103133.94
2023-02-11T02:03:14.808Z,103129.86
2023-02-11T02:06:02.207Z,103130.28
2023-02-11T02:08:47.288Z,103131.42
2023-02-11T02:11:15.967Z,103136.44
2023-02-11T02:13:45.472Z,103135.45
2023-02-11T02:16:17.144Z,103134.73
2023-02-11T02:19:25.142Z,103139.79
2023-02-11T02:22:24.435Z,103136.50
2023-02-11T02:25:03.187Z,103139.10
2023-02-11T02:27:44.772Z,103135.16
2023-02-11T02:30:37.520Z,103135.27
2023-02-11T02:33:23.020Z,103127.34
2023-02-11T02:36:20.942Z,103129.21
2023-02-11T02:39:01.205Z,103130.41
2023-02-11T02:41:33.754Z,103121.59
2023-02-11T02:44:02.624Z,103122.59
2023-02-11T02:46:34.561Z,103128.43
2023-02-11T02:49:03.927Z,103136.71
2023-02-11T02:51:46.028Z,103133.59
2023-02-11T02:54:28.640Z,103129.52
2023-02-11T02:57:19.955Z,103134.45
2023-02-11T03:00:09.021Z,103134.54
2023-02-11T03:02:52.451Z,103133.49
2023-02-11T03:05:45.505Z,103131.27
2023-02-11T03:08:35.130Z,103129.20
2023-02-11T03:11:06.344Z,103129.98
2023-02-11T03:13:37.181Z,103129.71
2023-02-11T03:16:14.082Z,103121.45
2023-02-11T03:18:44.468Z,103119.31
2023-02-11T03:21:14.580Z,103118.77
2023-02-11T03:23:51.162Z,103114.94
2023-02-11T03:26:35.001Z,103110.79
2023-02-11T03:29:37.065Z,103108.13
2023-02-11T03:32:25.674Z,103110.15
2023-02-11T03:35:16.719Z,103106.11
2023-02-11T03:37:53.913Z,103106.10
2023-02-11T03:40:26.667Z,103105.92
2023-02-11T03:43:03.688Z,103100.80
2023-02-11T03:45:32.307Z,103102.31
2023-02-11T03:48:05.165Z,103108.42
2023-02-11T03:50:36.468Z,103107.33
2023-02-11T03:53:06.311Z,103110.55
2023-02-11T03:55:38.989Z,103110.45
2023-02-11T03:58:08.004Z,103112.70
2023-02-11T04:00:39.930Z,103107.70
2023-02-11T04:03:10.598Z,103106.27
2023-02-11T04:05:39.463Z,103101.87
2023-02-11T04:08:08.146Z,103099.67
2023-02-11T04:10:36.594Z,103094.27
2023-02-11T04:13:05.120Z,103095.11
2023-02-11T04:15:33.610Z,103089.25
2023-02-11T04:18:03.724Z,103087.52
2023-02-11T04:20:32.297Z,103089.36
2023-02-11T04:23:00.889Z,103090.35
2023-02-11T04:25:29.776Z,103085.68
2023-02-11T04:27:58.389Z,103086.79
2023-02-11T04:30:27.140Z,103083.86
2023-02-11T04:32:55.624Z,103083.30
2023-02-11T04:35:24.112Z,103078.58
2023-02-11T04:37:52.889Z,103073.70
2023-02-11T04:40:21.472Z,103067.48
2023-02-11T04:42:50.694Z,103064.41
2023-02-11T04:45:19.062Z,103062.24
2023-02-11T04:47:47.531Z,103052.70
2023-02-11T04:50:15.978Z,103050.92
2023-02-11T04:52:44.705Z,103047.98
2023-02-11T04:55:13.699Z,103045.10
2023-02-11T04:57:42.609Z,103043.35
2023-02-11T05:00:14.609Z,103042.36
2023-02-11T05:02:44.475Z,103042.98
2023-02-11T05:05:12.956Z,103040.67
2023-02-11T05:07:41.416Z,103038.69
2023-02-11T05:10:10.106Z,103038.83
2023-02-11T05:12:38.393Z,103035.02
2023-02-11T05:15:07.473Z,103028.98
2023-02-11T05:17:35.868Z,103025.58
2023-02-11T05:20:04.805Z,103023.70
2023-02-11T05:22:33.165Z,103029.40
2023-02-11T05:25:01.624Z,103024.46
2023-02-11T05:27:30.292Z,103024.02
2023-02-11T05:30:01.561Z,103025.23
2023-02-11T05:32:31.195Z,103020.73
2023-02-11T05:35:00.281Z,103020.50
2023-02-11T05:37:30.767Z,103021.93
2023-02-11T05:39:59.568Z,103019.40
2023-02-11T05:42:28.187Z,103019.35
2023-02-11T05:44:56.865Z,103017.88
2023-02-11T05:47:25.474Z,103020.98
2023-02-11T05:49:55.628Z,103021.90
2023-02-11T05:52:25.439Z,103020.71
2023-02-11T05:54:54.613Z,103023.95
2023-02-11T05:57:23.675Z,103021.14
2023-02-11T05:59:55.149Z,103022.06
2023-02-11T06:02:23.792Z,103020.67
2023-02-11T06:04:53.178Z,103019.08
2023-02-11T06:07:21.550Z,103018.59
2023-02-11T06:09:50.550Z,103020.60
2023-02-11T06:12:20.082Z,103020.93
2023-02-11T06:14:49.458Z,103019.48
2023-02-11T06:20:58.546Z,103019.76
2023-02-11T06:23:30.003Z,103017.73
2023-02-11T06:26:06.055Z,103020.32
2023-02-11T06:28:36.268Z,103016.42
2023-02-11T06:31:07.024Z,103010.58
2023-02-11T06:33:36.383Z,103011.80
2023-02-11T06:36:13.372Z,103013.27
2023-02-11T06:38:42.865Z,103014.61
2023-02-11T06:41:12.601Z,103016.69
2023-02-11T06:43:41.780Z,103019.67
2023-02-11T06:46:10.575Z,103020.77
2023-02-11T06:48:41.664Z,103021.03
2023-02-11T06:51:14.194Z,103020.95
2023-02-11T06:53:46.548Z,103021.97
2023-02-11T06:56:20.968Z,103018.48
2023-02-11T06:58:55.071Z,103017.73
2023-02-11T07:01:25.432Z,103021.03
2023-02-11T07:03:54.707Z,103019.15
2023-02-11T07:06:28.235Z,103018.11
2023-02-11T07:08:58.197Z,103015.13
2023-02-11T07:11:29.379Z,103009.23
2023-02-11T07:14:08.529Z,103008.40
2023-02-11T07:16:39.713Z,103007.00
2023-02-11T07:19:08.309Z,103009.65
2023-02-11T07:21:37.027Z,103010.90
2023-02-11T07:24:11.265Z,103011.98
2023-02-11T07:26:41.133Z,103008.08
2023-02-11T07:29:09.938Z,103010.47
2023-02-11T07:31:38.718Z,103009.36
2023-02-11T07:34:07.395Z,103008.34
2023-02-11T07:36:36.280Z,103006.11
2023-02-11T07:39:04.944Z,102995.54
2023-02-11T07:41:38.108Z,102993.30
2023-02-11T07:44:11.468Z,102995.34
2023-02-11T07:46:45.144Z,102998.81
2023-02-11T07:49:13.933Z,102994.39
2023-02-11T07:51:42.536Z,102993.30
2023-02-11T07:54:12.783Z,102984.55
2023-02-11T07:56:41.340Z,102977.69
2023-02-11T07:59:11.961Z,102975.64
2023-02-11T08:01:43.999Z,102971.96
2023-02-11T08:04:14.045Z,102966.27
2023-02-11T08:06:44.469Z,102957.45
2023-02-11T08:09:17.408Z,102954.64
2023-02-11T08:11:48.134Z,102943.88
2023-02-11T08:14:17.486Z,102935.86
2023-02-11T08:16:50.796Z,102934.11
2023-02-11T08:19:24.720Z,102930.79
2023-02-11T08:21:57.117Z,102925.18
2023-02-11T08:24:25.806Z,102922.45
2023-02-11T08:26:56.852Z,102915.30
2023-02-11T08:29:27.839Z,102908.80
2023-02-11T08:31:57.046Z,102897.95
2023-02-11T08:34:25.709Z,102893.45
2023-02-11T08:36:55.862Z,102889.74
2023-02-11T08:39:32.252Z,102884.41
2023-02-11T08:42:02.927Z,102884.69
2023-02-11T08:44:31.510Z,102875.56
2023-02-11T08:47:00.410Z,102875.41
2023-02-11T08:49:30.959Z,102871.69
2023-02-11T08:52:04.143Z,102870.55
2023-02-11T08:54:33.130Z,102864.90
2023-02-11T08:57:06.406Z,102861.34
2023-02-11T08:59:37.772Z,102856.72
2023-02-11T09:02:08.067Z,102860.45
2023-02-11T09:04:37.159Z,102859.55
2023-02-11T09:07:08.030Z,102861.26
2023-02-11T09:09:37.104Z,102852.92
2023-02-11T09:12:06.353Z,102850.48
2023-02-11T09:14:35.398Z,102842.07
2023-02-11T09:17:04.450Z,102839.28
2023-02-11T09:19:33.303Z,102831.83
2023-02-11T09:22:08.478Z,102825.57
2023-02-11T09:24:37.807Z,102821.11
2023-02-11T09:27:11.701Z,102813.76
2023-02-11T09:29:43.900Z,102807.25
2023-02-11T09:32:12.747Z,102799.98
2023-02-11T09:34:41.883Z,102791.55
2023-02-11T09:37:10.978Z,102788.16
2023-02-11T09:39:39.890Z,102772.41
2023-02-11T09:42:11.837Z,102760.88
2023-02-11T09:44:45.133Z,102748.72
2023-02-11T09:47:32.142Z,102748.62
2023-02-11T09:50:10.765Z,102755.77
2023-02-11T09:52:48.085Z,102749.48
2023-02-11T09:55:27.090Z,102736.00
2023-02-11T09:58:00.935Z,102736.75
2023-02-11T10:00:52.736Z,102735.71
2023-02-11T10:03:36.264Z,102723.63
2023-02-11T10:06:31.249Z,102721.68
2023-02-11T10:09:11.109Z,102716.21
2023-02-11T10:12:03.960Z,102701.81
2023-02-11T10:14:54.255Z,102693.86
2023-02-11T10:17:37.071Z,102686.28
2023-02-11T10:20:32.070Z,102675.23
2023-02-11T10:23:09.155Z,102664.44
2023-02-11T10:25:46.476Z,102660.09
2023-02-11T10:28:19.526Z,102646.05
2023-02-11T10:31:15.423Z,102640.06
2023-02-11T10:34:00.316Z,102639.54
2023-02-11T10:36:39.219Z,102634.56
2023-02-11T10:39:20.628Z,102623.13
2023-02-11T10:42:05.926Z,102616.70
2023-02-11T10:44:40.013Z,102611.51
2023-02-11T10:47:28.756Z,102601.68
2023-02-11T10:50:04.347Z,102594.77
2023-02-11T10:52:32.797Z,102586.48
2023-02-11T10:55:16.944Z,102580.82
2023-02-11T10:57:59.617Z,102580.02
2023-02-11T11:00:41.195Z,102580.67
2023-02-11T11:03:22.006Z,102573.04
2023-02-11T11:05:58.785Z,102564.81
2023-02-11T11:08:47.926Z,102557.10
2023-02-11T11:11:20.091Z,102555.98
2023-02-11T11:13:54.522Z,102555.38
2023-02-11T11:16:28.325Z,102549.69
2023-02-11T11:19:06.844Z,102549.50
2023-02-11T11:21:41.497Z,102542.38
2023-02-11T11:24:31.903Z,102536.86
2023-02-11T11:27:06.348Z,102533.92
2023-02-11T18:45:51.096Z,102112.33
2023-02-11T18:48:20.498Z,102117.70
2023-02-11T18:50:49.176Z,102114.86
2023-02-11T18:53:17.852Z,102112.64
2023-02-11T18:55:47.625Z,102110.47
2023-02-11T18:58:16.348Z,102104.89
2023-02-11T19:00:47.857Z,102115.95
2023-02-11T19:03:18.227Z,102111.94
2023-02-11T19:05:51.222Z,102091.27
2023-02-11T19:08:19.960Z,102076.95
2023-02-11T19:10:50.066Z,102073.27
2023-02-11T19:13:34.265Z,102084.86
2023-02-11T19:16:08.197Z,102089.04
2023-02-11T19:18:39.137Z,102092.98
2023-02-11T19:21:11.334Z,102089.13
2023-02-11T19:23:40.176Z,102085.35
2023-02-11T19:26:08.885Z,102079.06
2023-02-11T19:28:40.055Z,102082.29
2023-02-11T19:31:09.881Z,102083.21
2023-02-11T19:33:38.493Z,102085.14
2023-02-11T19:36:08.213Z,102087.98
2023-02-11T19:38:39.287Z,102090.06
2023-02-11T19:41:08.013Z,102092.69
2023-02-11T19:43:37.124Z,102092.71
2023-02-11T19:46:05.992Z,102099.11
2023-02-11T19:48:35.003Z,102103.01
2023-02-11T19:51:12.107Z,102111.70
2023-02-11T19:53:42.026Z,102115.95
2023-02-11T19:56:11.309Z,102114.75
2023-02-11T19:58:42.280Z,102116.10
2023-02-11T20:01:14.608Z,102111.16
2023-02-11T20:03:43.533Z,102108.66
2023-02-11T20:06:14.877Z,102104.40
2023-02-11T20:08:44.729Z,102104.23
2023-02-11T20:11:16.033Z,102103.27
2023-02-11T20:13:44.605Z,102107.05
2023-02-11T20:16:16.749Z,102104.77
2023-02-11T20:18:46.810Z,102116.36
2023-02-11T20:21:22.126Z,102117.09
2023-02-11T20:23:51.331Z,102113.20
2023-02-11T20:26:21.658Z,102115.56
2023-02-11T20:28:52.295Z,102104.61
2023-02-11T20:31:24.372Z,102105.66
2023-02-11T20:33:56.622Z,102101.51
2023-02-11T20:36:39.360Z,102098.79
2023-02-11T20:39:11.260Z,102097.77
2023-02-11T20:41:40.239Z,102102.75
2023-02-11T20:44:10.986Z,102099.14
2023-02-11T20:46:46.633Z,102093.61
2023-02-11T20:49:19.250Z,102089.51
2023-02-11T20:51:49.534Z,102067.11
2023-02-11T20:54:20.571Z,102059.73
2023-02-11T20:56:51.300Z,102061.39
2023-02-11T20:59:22.754Z,102059.93
2023-02-11T21:01:55.124Z,102046.82
2023-02-11T21:04:29.821Z,102047.05
2023-02-11T21:07:01.823Z,102055.02
2023-02-11T21:09:33.060Z,102050.05
2023-02-11T21:12:04.553Z,102061.81
2023-02-11T21:14:34.277Z,102058.77
2023-02-11T21:17:02.951Z,102055.80
2023-02-11T21:19:33.806Z,102055.40
2023-02-11T21:22:03.665Z,102052.88
2023-02-11T21:24:32.192Z,102059.10
2023-02-11T21:27:01.080Z,102063.77
2023-02-11T21:29:30.522Z,102063.83
2023-02-11T21:31:59.391Z,102063.95
2023-02-11T21:34:29.321Z,102060.39
2023-02-11T21:36:58.388Z,102056.36
2023-02-11T21:39:26.757Z,102056.16
2023-02-11T21:41:56.166Z,102060.04
2023-02-11T21:44:24.658Z,102059.69
2023-02-11T21:46:53.303Z,102069.71
2023-02-11T21:49:21.602Z,102073.29
2023-02-11T21:51:49.992Z,102068.83
2023-02-11T21:54:19.180Z,102066.71
2023-02-11T21:56:50.387Z,102067.73
2023-02-11T21:59:18.806Z,102069.16
2023-02-11T22:01:47.318Z,102064.95
2023-02-11T22:04:15.700Z,102065.11
2023-02-11T22:06:45.168Z,102067.72
2023-02-11T22:09:13.557Z,102064.73
2023-02-11T22:11:41.841Z,102068.85
2023-02-11T22:14:10.305Z,102070.60
2023-02-11T22:16:38.959Z,102066.44
2023-02-11T22:19:07.924Z,102065.95
2023-02-11T22:21:36.809Z,102066.52
2023-02-11T22:24:05.865Z,102063.65
2023-02-11T22:26:34.253Z,102070.66
2023-02-11T22:29:02.738Z,102068.64
2023-02-11T22:31:33.485Z,102067.42
2023-02-11T22:34:03.855Z,102066.75
2023-02-11T22:36:37.692Z,102067.23
2023-02-11T22:39:12.618Z,102068.02
2023-02-11T22:41:42.281Z,102075.83
2023-02-11T22:44:10.711Z,102078.67
2023-02-11T22:46:39.636Z,102079.84
2023-02-11T22:49:07.969Z,102075.94
2023-02-11T22:51:36.452Z,102079.52
2023-02-11T22:54:07.446Z,102079.83
2023-02-11T22:56:36.281Z,102079.15
2023-02-11T22:59:07.728Z,102076.80
2023-02-11T23:01:36.294Z,102076.70
2023-02-11T23:04:06.695Z,102076.97
2023-02-11T23:06:35.542Z,102073.50
2023-02-11T23:09:05.705Z,102073.05
2023-02-11T23:11:34.551Z,102068.52
2023-02-11T23:14:03.635Z,102068.85
2023-02-11T23:16:34.767Z,102066.45
2023-02-11T23:19:07.658Z,102066.54
2023-02-11T23:21:38.567Z,102063.60
2023-02-11T23:24:12.609Z,102059.84
2023-02-11T23:26:42.627Z,102054.54
2023-02-11T23:29:11.416Z,102057.98
2023-02-11T23:31:43.604Z,102054.62
2023-02-11T23:34:17.360Z,102049.13
2023-02-11T23:36:45.970Z,102047.84
2023-02-11T23:39:17.143Z,102045.41
2023-02-11T23:41:46.223Z,102042.17
2023-02-11T23:44:14.594Z,102039.38
2023-02-11T23:46:43.197Z,102029.64
2023-02-11T23:49:11.662Z,102024.02
2023-02-11T23:51:40.161Z,102027.06
2023-02-11T23:54:14.661Z,102031.90
2023-02-11T23:56:42.954Z,102030.14
2023-02-11T23:59:11.934Z,102029.72
